Rio Grande, Texas
Current Conditions -  °F | °C
As of 12:55 PM on Monday 20 Oct 2014 (Local Time) from KEBG Reporting Station
Overcast Overcast  
Wind Chill: 30°   Ceiling: 8500
Heat Index: 32°   Visibility: 10mi
Dew Point: 21°   Wind: 7mph
Humidity: 57%   Direction: 360°N
Pressure: 29.97"   Gusts: NA
Location:  26.5735°N, 98.695°W
Report Text: KEBG 201755Z AUTO 36006KT 10SM OVC085 30/21 A2997 RMK AO2 T03010206 10303 20201
Loading
Personal Weather Stations






























Interactive Weather Map
Tropical Storm Tracking
New forecast layout! Learn more

10-Day Weather Forecast

Advertisements
Track Severe Weather on mobile